»·PEaware :: N196EC KBUR-KSNA

N196EC :: KBUR-KSNA

FLIGHT INFORMATION

Flight Status: Arrived
Operator: Privately registered:
United States
More flights under this callsign
Pilot: Adrián R. (20842)
Aircraft: AERMACCHI WARRIOR
(F260)
More flights by this aircraft type
Origin: KBUR Bob Hope-Burbank
United States
Destination: KSNA John Wayne-Orange Co
United States
More flights between these airports :: More routes between these airports
Route: +ELMOO8 ELMOO V186 BAYJY V363 POXKU V8 SLI
File this flight plan on PilotEdge
Remarks: TEC ROUTE BURP20
Altitude:
(Current/Filed)
5,000ft
Speed:
(Current/Filed)
150kts
Departed: 30-Jan-19 12:25 PM
Arrived: 30-Jan-19 12:55 PM
Distance/Time
Traveled:
40nm/0:29
Distance/Time
To Go:
Arrived

Flight Plot

Page will automatically refresh every two minutes.

Flight plan parsing failed; only flown route is shown


Map Options




Map Legend


Flown Route
Filed Route
Departure Airport
Arrival Airport
Navaid (VOR, NDB)
Fix

Horizontal Profiles

Position Reports

Time Latitude Longitude Heading Altitude Ground
Speed
30-Jan-19 12:07 34.196595 -118.367886 180 779ft 0kts
30-Jan-19 12:08 34.196595 -118.367886 180 779ft 0kts
30-Jan-19 12:09 34.196595 -118.367886 180 779ft 0kts
30-Jan-19 12:10 34.196595 -118.367886 180 779ft 0kts
30-Jan-19 12:11 34.196595 -118.367886 180 779ft 0kts
30-Jan-19 12:12 34.196595 -118.367886 180 779ft 0kts
30-Jan-19 12:13 34.196595 -118.367886 180 779ft 0kts
30-Jan-19 12:14 34.196595 -118.367886 180 779ft 0kts
30-Jan-19 12:15 34.196478 -118.367541 95 779ft 4kts
30-Jan-19 12:16 34.196567 -118.366776 23 779ft 0kts
30-Jan-19 12:17 34.196567 -118.366776 23 779ft 0kts
30-Jan-19 12:18 34.196567 -118.366776 23 779ft 0kts
30-Jan-19 12:19 34.196665 -118.366746 7 779ft 3kts
30-Jan-19 12:20 34.197061 -118.368928 323 779ft 0kts
30-Jan-19 12:21 34.197061 -118.368928 323 779ft 0kts
30-Jan-19 12:22 34.197061 -118.368928 323 779ft 0kts
30-Jan-19 12:23 34.197089 -118.368951 327 779ft 2kts
30-Jan-19 12:24 34.197829 -118.359519 90 850ft 109kts
30-Jan-19 12:25 34.182203 -118.326044 135 2151ft 138kts
30-Jan-19 12:26 34.161037 -118.287875 107 3457ft 140kts
30-Jan-19 12:27 34.148640 -118.243665 109 4753ft 137kts
30-Jan-19 12:28 34.134553 -118.196663 110 4999ft 150kts
30-Jan-19 12:29 34.119984 -118.148522 109 5000ft 152kts
30-Jan-19 12:30 34.105327 -118.100177 109 4999ft 152kts
30-Jan-19 12:31 34.090758 -118.052178 109 5000ft 151kts
30-Jan-19 12:32 34.076221 -118.004366 109 5000ft 151kts
30-Jan-19 12:33 34.061651 -117.956521 109 5000ft 151kts
30-Jan-19 12:34 34.047023 -117.908563 109 5000ft 151kts
30-Jan-19 12:35 34.032271 -117.860446 110 5000ft 152kts
30-Jan-19 12:36 34.017361 -117.812603 110 4999ft 152kts
30-Jan-19 12:37 33.989281 -117.780985 185 4643ft 162kts
30-Jan-19 12:38 33.942443 -117.783829 181 3989ft 154kts
30-Jan-19 12:39 33.899966 -117.785323 181 3990ft 152kts
30-Jan-19 12:40 33.858933 -117.790095 203 3993ft 146kts
30-Jan-19 12:41 33.839234 -117.827929 259 3997ft 144kts
30-Jan-19 12:42 33.816960 -117.859339 160 3997ft 145kts
30-Jan-19 12:43 33.817492 -117.820449 22 3994ft 143kts
30-Jan-19 12:44 33.854920 -117.805208 31 3995ft 144kts
30-Jan-19 12:45 33.889444 -117.779450 31 3991ft 144kts
30-Jan-19 12:46 33.894899 -117.743311 160 3985ft 145kts
30-Jan-19 12:47 33.855373 -117.751001 206 3981ft 145kts
30-Jan-19 12:48 33.821680 -117.776237 208 3395ft 141kts
30-Jan-19 12:49 33.788138 -117.797556 208 2506ft 130kts
30-Jan-19 12:50 33.759736 -117.815555 207 1818ft 102kts
30-Jan-19 12:51 33.734551 -117.831541 207 1263ft 103kts
30-Jan-19 12:52 33.709559 -117.847382 207 717ft 98kts
30-Jan-19 12:53 33.686505 -117.861964 208 205ft 89kts
30-Jan-19 12:54 33.670198 -117.872116 187 59ft 28kts
30-Jan-19 12:55 33.669180 -117.871641 129 59ft 0kts
30-Jan-19 12:56 33.668164 -117.871902 222 59ft 12kts
30-Jan-19 12:57 33.667297 -117.871045 57 59ft 3kts
30-Jan-19 12:58 33.667339 -117.870981 48 59ft 0kts

Navigation Log

Ident Type
Flight plan parsing failed, navigation log unavailable